Time;durP1;ratioP1;P1;durP2;ratioP2;P2;SDS_P1;SDS_P2;PMS_P1;PMS_P2;Temp;Humidity;BMP_temperature;BMP_pressure;BME280_temperature;BME280_humidity;BME280_pressure;Samples;Min_cycle;Max_cycle;Signal;HPM_P1;HPM_P2
2022/06/28 00:07:00;;;;;;;15.48;13.88;;;16.80;99.90;;;;;;6156835;23;20028;-93
2022/06/28 00:10:08;;;;;;;16.45;12.77;;;16.20;99.90;;;;;;6038369;23;20027;-90
2022/06/28 00:12:59;;;;;;;16.98;13.25;;;16.20;99.90;;;;;;6141555;23;20013;-89
2022/06/28 00:21:22;;;;;;;15.73;14.05;;;16.50;99.90;;;;;;6110597;23;20040;-93
2022/06/28 00:23:56;;;;;;;15.75;13.85;;;16.60;99.90;;;;;;6105264;23;20057;-91
2022/06/28 00:26:24;;;;;;;15.00;13.50;;;16.10;99.90;;;;;;6130867;23;20018;-92
2022/06/28 00:29:08;;;;;;;15.57;13.82;;;16.50;99.90;;;;;;6105828;23;20025;-92
2022/06/28 00:31:37;;;;;;;15.45;12.73;;;16.40;99.90;;;;;;6131647;23;20009;-90
2022/06/28 00:34:04;;;;;;;15.48;12.68;;;16.00;99.90;;;;;;6106646;23;20458;-93
2022/06/28 00:36:30;;;;;;;14.95;12.63;;;16.10;99.90;;;;;;6106966;23;20036;-90
2022/06/28 00:38:55;;;;;;;15.77;12.95;;;16.20;99.90;;;;;;6107172;23;20018;-91
2022/06/28 00:41:21;;;;;;;14.73;13.07;;;16.20;99.90;;;;;;6131205;23;20017;-94
2022/06/28 00:43:48;;;;;;;14.35;12.80;;;15.70;99.90;;;;;;6106045;23;20013;-93
2022/06/28 00:46:17;;;;;;;14.30;12.00;;;16.00;99.90;;;;;;6106720;23;20014;-91
2022/06/28 00:48:43;;;;;;;15.65;13.90;;;15.00;99.90;;;;;;6107287;23;20044;-91
2022/06/28 00:51:09;;;;;;;15.73;12.48;;;15.70;99.90;;;;;;6107171;23;20017;-93
2022/06/28 00:53:38;;;;;;;14.68;12.80;;;15.90;99.90;;;;;;6106339;23;20013;-93
2022/06/28 00:56:07;;;;;;;15.15;13.05;;;15.50;99.90;;;;;;6106840;23;20024;-91
2022/06/28 00:58:36;;;;;;;13.77;12.27;;;15.80;99.90;;;;;;6105759;23;20459;-90
2022/06/28 01:01:05;;;;;;;14.93;12.20;;;15.50;99.90;;;;;;6105628;23;20113;-93
2022/06/28 01:03:34;;;;;;;13.90;12.45;;;15.00;99.90;;;;;;6104350;23;20049;-92
2022/06/28 01:06:05;;;;;;;14.68;13.07;;;16.00;99.90;;;;;;6158472;23;20038;-92
2022/06/28 01:08:34;;;;;;;14.25;11.73;;;15.10;99.90;;;;;;6185515;23;20028;-92
2022/06/28 01:11:18;;;;;;;13.77;12.38;;;15.00;99.90;;;;;;6185407;23;20013;-91
2022/06/28 01:13:59;;;;;;;14.37;11.67;;;15.50;99.90;;;;;;6184237;23;20024;-92
2022/06/28 01:16:29;;;;;;;13.85;11.48;;;15.40;99.90;;;;;;6185541;23;20248;-88
2022/06/28 01:18:55;;;;;;;14.43;12.23;;;15.40;99.90;;;;;;6184619;23;20017;-91
2022/06/28 01:21:24;;;;;;;14.32;11.38;;;15.40;99.90;;;;;;6186066;23;20021;-90
2022/06/28 01:24:04;;;;;;;13.25;11.13;;;15.40;99.90;;;;;;6184109;23;20035;-89
2022/06/28 01:26:35;;;;;;;12.52;11.15;;;14.20;99.90;;;;;;6161097;23;20024;-89
2022/06/28 01:29:09;;;;;;;13.70;11.35;;;15.30;99.90;;;;;;6184557;23;20032;-89
2022/06/28 01:31:37;;;;;;;13.23;11.05;;;14.70;99.90;;;;;;6161012;23;20105;-91
2022/06/28 01:34:04;;;;;;;12.88;10.80;;;14.30;99.90;;;;;;6159828;23;20012;-90
2022/06/28 01:36:35;;;;;;;13.77;10.75;;;15.10;99.90;;;;;;6184747;23;20028;-90
2022/06/28 01:39:01;;;;;;;13.00;10.75;;;14.20;99.90;;;;;;6161451;23;20017;-91
2022/06/28 01:41:33;;;;;;;14.38;11.07;;;14.50;99.90;;;;;;6186259;23;20048;-91
2022/06/28 01:44:02;;;;;;;12.43;10.90;;;14.70;99.90;;;;;;6184693;23;20016;-92
2022/06/28 01:46:40;;;;;;;15.10;10.52;;;14.70;99.90;;;;;;6185312;23;20019;-92
2022/06/28 01:49:09;;;;;;;13.38;11.15;;;14.90;99.90;;;;;;6185025;23;20083;-89
2022/06/28 01:51:40;;;;;;;12.15;10.60;;;14.90;99.90;;;;;;6184939;23;20063;-89
2022/06/28 01:54:09;;;;;;;12.15;10.85;;;15.20;99.90;;;;;;6185671;23;20380;-89
2022/06/28 01:56:58;;;;;;;13.70;10.82;;;14.50;99.90;;;;;;6185279;23;20048;-92
2022/06/28 01:59:41;;;;;;;12.90;11.50;;;14.60;99.90;;;;;;6139138;23;20024;-89
2022/06/28 02:02:09;;;;;;;16.20;12.15;;;14.60;99.90;;;;;;6159429;23;20013;-91
2022/06/28 02:04:54;;;;;;;16.95;12.05;;;15.20;99.90;;;;;;6183959;23;20100;-92
2022/06/28 02:07:48;;;;;;;;;;;;;;;;;;;;;
2022/06/28 02:10:37;;;;;;;12.82;11.38;;;14.70;99.90;;;;;;6184042;23;20546;-90
2022/06/28 02:13:09;;;;;;;14.70;11.18;;;14.60;99.90;;;;;;6163458;23;20031;-90
2022/06/28 02:15:40;;;;;;;14.38;11.60;;;14.70;99.90;;;;;;6183367;23;20017;-91
2022/06/28 02:18:44;;;;;;;16.17;12.70;;;14.80;99.90;;;;;;6160726;23;20013;-91
2022/06/28 02:21:34;;;;;;;14.90;11.90;;;14.70;99.90;;;;;;6183027;23;20373;-90
2022/06/28 02:24:07;;;;;;;16.35;12.18;;;14.80;99.90;;;;;;6160712;23;20017;-89
2022/06/28 02:26:41;;;;;;;13.30;11.90;;;14.70;99.90;;;;;;6192966;23;20017;-89
2022/06/28 02:29:24;;;;;;;12.43;10.90;;;15.10;99.90;;;;;;6187777;23;20017;-90
2022/06/28 02:31:56;;;;;;;13.88;11.73;;;15.20;99.90;;;;;;6181282;23;20066;-90
2022/06/28 02:44:51;;;;;;;17.42;12.13;;;14.70;99.90;;;;;;6153651;23;20009;-93
2022/06/28 02:47:20;;;;;;;14.65;11.30;;;14.70;99.90;;;;;;6104358;23;20014;-90
2022/06/28 02:49:45;;;;;;;14.30;10.93;;;14.50;99.90;;;;;;6159880;23;20048;-92
2022/06/28 02:52:14;;;;;;;14.18;11.48;;;14.80;99.90;;;;;;6184490;23;20068;-91
2022/06/28 02:54:48;;;;;;;12.38;11.07;;;14.50;99.90;;;;;;6159102;23;20013;-90
2022/06/28 02:57:27;;;;;;;15.45;10.98;;;15.60;99.90;;;;;;6160522;23;20013;-89
2022/06/28 03:00:33;;;;;;;13.50;10.68;;;14.50;99.90;;;;;;6137799;23;20390;-91
2022/06/28 03:03:00;;;;;;;15.88;10.95;;;14.90;99.90;;;;;;6161993;23;20017;-91
2022/06/28 03:05:28;;;;;;;13.90;11.20;;;14.40;99.90;;;;;;6154159;23;20095;-90
2022/06/28 03:08:01;;;;;;;16.73;12.35;;;14.70;99.90;;;;;;6159895;23;20055;-90
2022/06/28 03:10:57;;;;;;;13.98;11.68;;;14.50;99.90;;;;;;6161495;23;20334;-90
2022/06/28 03:13:37;;;;;;;15.68;11.27;;;14.00;99.90;;;;;;6160527;23;20013;-89
2022/06/28 03:16:15;;;;;;;13.73;11.70;;;14.70;99.90;;;;;;6160192;23;20017;-91
2022/06/28 03:19:30;;;;;;;11.57;10.40;;;14.40;99.90;;;;;;6184664;23;20044;-90
2022/06/28 03:21:52;;;;;;;13.88;11.40;;;14.90;99.90;;;;;;6161832;23;20346;-90
2022/06/28 03:24:26;;;;;;;15.77;12.63;;;14.90;99.90;;;;;;6184591;23;20023;-90
2022/06/28 03:26:55;;;;;;;15.70;12.70;;;14.50;99.90;;;;;;6183796;23;20017;-89
2022/06/28 03:29:33;;;;;;;14.27;11.18;;;14.50;99.90;;;;;;6184459;23;20052;-88
2022/06/28 03:32:09;;;;;;;18.80;13.75;;;14.60;99.90;;;;;;6183638;23;20024;-91
2022/06/28 03:34:43;;;;;;;17.80;13.48;;;14.60;99.90;;;;;;6183542;23;20013;-90
2022/06/28 03:37:25;;;;;;;15.60;12.98;;;14.60;99.90;;;;;;6183313;23;20049;-92
2022/06/28 03:39:53;;;;;;;17.33;12.82;;;14.70;99.90;;;;;;6184476;23;20101;-89
2022/06/28 03:42:24;;;;;;;18.77;13.70;;;14.70;99.90;;;;;;6136142;23;20048;-89
2022/06/28 03:44:56;;;;;;;15.63;13.10;;;15.10;99.90;;;;;;6185522;23;20784;-92
2022/06/28 03:47:27;;;;;;;16.52;12.98;;;14.80;99.90;;;;;;6184629;23;20028;-89
2022/06/28 03:49:56;;;;;;;19.15;12.60;;;14.80;99.90;;;;;;6158663;23;20013;-91
2022/06/28 03:52:34;;;;;;;15.93;12.45;;;14.60;99.90;;;;;;6186560;23;20096;-93
2022/06/28 03:55:00;;;;;;;14.48;12.15;;;14.50;99.90;;;;;;6163509;23;20380;-92
2022/06/28 03:57:27;;;;;;;14.85;11.45;;;14.80;99.90;;;;;;6185464;23;20095;-92
2022/06/28 04:00:09;;;;;;;12.93;11.00;;;14.60;99.90;;;;;;6160256;23;20019;-92
2022/06/28 04:02:41;;;;;;;15.68;11.60;;;14.70;99.90;;;;;;6160769;23;20102;-91
2022/06/28 04:05:16;;;;;;;17.33;12.05;;;15.20;99.90;;;;;;6184619;23;20461;-92
2022/06/28 04:07:44;;;;;;;14.85;12.73;;;15.00;99.90;;;;;;6185087;23;20064;-89
2022/06/28 04:10:16;;;;;;;17.85;11.57;;;14.70;99.90;;;;;;6185738;23;20013;-91
2022/06/28 04:12:48;;;;;;;13.68;11.20;;;14.70;99.90;;;;;;6185283;23;20021;-91
2022/06/28 04:15:16;;;;;;;18.45;12.52;;;15.00;99.90;;;;;;6136561;23;20064;-90
2022/06/28 04:17:47;;;;;;;15.48;11.93;;;15.20;99.90;;;;;;6185358;23;20457;-90
2022/06/28 04:20:16;;;;;;;14.55;11.38;;;14.90;99.90;;;;;;6161895;23;20013;-91
2022/06/28 04:22:42;;;;;;;14.82;11.70;;;15.10;99.90;;;;;;6185249;23;20091;-92
2022/06/28 04:25:08;;;;;;;13.45;10.98;;;15.10;99.90;;;;;;6185255;23;20066;-92
2022/06/28 04:27:40;;;;;;;15.73;11.35;;;15.10;99.90;;;;;;6185156;23;20632;-91
2022/06/28 04:30:09;;;;;;;;;;;15.10;99.90;;;;;;6185781;23;20092;-91
2022/06/28 04:32:40;;;;;;;12.90;10.63;;;15.00;99.90;;;;;;6160819;23;19990;-88
2022/06/28 04:35:10;;;;;;;14.07;10.43;;;14.80;99.90;;;;;;6184721;23;20055;-91
2022/06/28 04:37:38;;;;;;;11.80;9.75;;;14.90;99.90;;;;;;6191097;23;20092;-89
2022/06/28 04:40:09;;;;;;;14.10;10.13;;;14.70;99.90;;;;;;6142201;23;20013;-91
2022/06/28 04:42:41;;;;;;;12.15;10.02;;;14.80;99.90;;;;;;6186187;23;20339;-91
2022/06/28 04:45:07;;;;;;;11.65;9.90;;;14.60;99.90;;;;;;6185711;23;20013;-90
2022/06/28 04:47:37;;;;;;;10.90;9.80;;;14.90;99.90;;;;;;6185545;23;20009;-92
2022/06/28 04:50:13;;;;;;;13.90;10.18;;;16.10;99.90;;;;;;6161128;23;20009;-90
2022/06/28 04:52:42;;;;;;;11.00;9.50;;;14.50;99.90;;;;;;6161554;23;20009;-90
2022/06/28 04:55:11;;;;;;;13.27;10.85;;;14.90;99.90;;;;;;6161072;23;20017;-89
2022/06/28 04:57:40;;;;;;;12.23;9.32;;;15.20;99.90;;;;;;6186191;23;20055;-90
2022/06/28 05:00:12;;;;;;;13.75;9.75;;;15.20;99.90;;;;;;6161277;23;20013;-91
2022/06/28 05:02:41;;;;;;;11.18;10.07;;;14.90;99.90;;;;;;6185753;23;20024;-91
2022/06/28 05:05:11;;;;;;;11.63;9.45;;;15.10;99.90;;;;;;6185156;23;20331;-90
2022/06/28 05:10:58;;;;;;;16.55;11.10;;;15.40;99.90;;;;;;6162410;23;20438;-91
2022/06/28 05:13:24;;;;;;;11.98;10.25;;;15.40;99.90;;;;;;6161282;23;20048;-90
2022/06/28 05:15:56;;;;;;;14.18;9.65;;;15.20;99.90;;;;;;6160718;23;20079;-90
2022/06/28 05:18:25;;;;;;;13.43;9.90;;;15.90;99.90;;;;;;6161213;23;20073;-90
2022/06/28 05:20:53;;;;;;;12.60;9.68;;;15.30;99.90;;;;;;6161551;23;20017;-89
2022/06/28 05:23:25;;;;;;;14.27;10.63;;;15.20;99.90;;;;;;6161394;23;20017;-89
2022/06/28 05:25:56;;;;;;;11.57;9.32;;;15.30;99.90;;;;;;6159722;23;20024;-90
2022/06/28 05:28:28;;;;;;;13.63;9.65;;;15.50;99.90;;;;;;6184783;23;20504;-91
2022/06/28 05:30:57;;;;;;;12.65;8.82;;;15.40;99.90;;;;;;6160621;23;20419;-91
2022/06/28 05:33:26;;;;;;;12.07;9.25;;;15.80;99.90;;;;;;6161044;23;20028;-90
2022/06/28 05:35:55;;;;;;;12.52;9.25;;;15.50;99.90;;;;;;6184809;23;20013;-89
2022/06/28 05:38:32;;;;;;;13.25;9.07;;;15.30;99.90;;;;;;6160263;23;20013;-91
2022/06/28 05:41:26;;;;;;;14.65;9.10;;;15.60;99.90;;;;;;6210402;23;20024;-90
2022/06/28 05:44:41;;;;;;;12.30;8.98;;;15.60;99.90;;;;;;6209497;23;20092;-90
2022/06/28 05:47:57;;;;;;;14.65;8.82;;;15.90;99.90;;;;;;6150811;23;20701;-90
2022/06/28 05:50:25;;;;;;;12.87;9.13;;;16.40;99.90;;;;;;6128794;23;20100;-92
2022/06/28 05:57:41;;;;;;;11.00;8.35;;;16.20;99.90;;;;;;6038446;23;20090;-90
2022/06/28 06:01:05;;;;;;;14.10;8.70;;;16.30;99.90;;;;;;5901192;24;20025;-91
2022/06/28 06:57:59;;;;;;;12.68;5.72;;;17.20;99.90;;;;;;6066417;23;20471;-92
2022/06/28 07:00:31;;;;;;;7.65;5.20;;;17.10;99.90;;;;;;6038817;23;20023;-91
2022/06/28 07:03:05;;;;;;;8.15;4.80;;;17.00;99.90;;;;;;6039618;23;20569;-92
2022/06/28 07:06:17;;;;;;;6.88;4.38;;;17.10;99.90;;;;;;6039492;23;20080;-93
2022/06/28 07:09:05;;;;;;;5.50;3.50;;;17.60;99.90;;;;;;5984288;23;20022;-90
2022/06/28 07:11:34;;;;;;;5.10;3.63;;;17.50;99.90;;;;;;5984328;23;20015;-89
2022/06/28 07:14:03;;;;;;;6.97;3.65;;;17.60;99.90;;;;;;6092641;23;20385;-90
2022/06/28 07:16:49;;;;;;;5.90;3.20;;;17.40;99.90;;;;;;6132216;23;20017;-89
2022/06/28 07:19:17;;;;;;;8.48;3.38;;;18.00;99.90;;;;;;6143412;23;20014;-89
2022/06/28 07:21:45;;;;;;;7.53;3.95;;;18.10;99.90;;;;;;6132144;23;20248;-89
2022/06/28 07:24:13;;;;;;;12.40;3.78;;;17.90;99.90;;;;;;6131672;23;20017;-90
2022/06/28 07:26:44;;;;;;;5.45;3.22;;;17.80;99.90;;;;;;6155987;23;20023;-91
2022/06/28 07:29:19;;;;;;;11.52;4.18;;;18.30;99.90;;;;;;6131235;23;20096;-89
2022/06/28 07:31:44;;;;;;;7.80;4.03;;;18.20;99.90;;;;;;6131000;23;20017;-91
2022/06/28 07:34:12;;;;;;;7.70;3.88;;;18.40;99.90;;;;;;6131978;23;20020;-88
2022/06/28 07:36:37;;;;;;;10.63;3.55;;;18.50;99.90;;;;;;6133747;23;20152;-90
2022/06/28 07:39:04;;;;;;;7.13;3.45;;;18.30;99.90;;;;;;6180455;23;20306;-89
2022/06/28 07:41:30;;;;;;;7.55;2.85;;;18.30;99.90;;;;;;6161818;23;20092;-89
2022/06/28 07:43:56;;;;;;;8.63;3.08;;;18.50;99.90;;;;;;6212293;23;20016;-90
2022/06/28 07:46:25;;;;;;;5.55;2.67;;;18.20;99.90;;;;;;6161717;23;20013;-89
2022/06/28 07:48:51;;;;;;;5.43;2.30;;;18.10;99.90;;;;;;6137807;23;20075;-89
2022/06/28 07:54:02;;;;;;;7.65;2.40;;;18.50;99.90;;;;;;6186632;23;20637;-91
2022/06/28 07:56:27;;;;;;;6.32;2.42;;;18.50;99.90;;;;;;6186548;23;20084;-91
2022/06/28 07:58:54;;;;;;;6.65;2.10;;;18.30;99.90;;;;;;6137360;23;20110;-93
2022/06/28 08:01:20;;;;;;;7.72;2.65;;;18.30;99.90;;;;;;6161461;23;20024;-91
2022/06/28 08:03:49;;;;;;;5.40;2.03;;;18.70;99.90;;;;;;6161319;23;20013;-90
2022/06/28 08:06:15;;;;;;;7.43;2.22;;;18.50;99.90;;;;;;6137868;23;20446;-90
2022/06/28 08:08:43;;;;;;;6.43;2.20;;;18.80;99.90;;;;;;6161908;23;20028;-88
2022/06/28 08:11:09;;;;;;;5.90;2.30;;;18.80;99.90;;;;;;6137193;23;20092;-89
2022/06/28 08:13:38;;;;;;;10.23;2.08;;;19.00;99.90;;;;;;6186726;23;20020;-89
2022/06/28 08:16:05;;;;;;;7.55;2.40;;;19.10;99.90;;;;;;6161729;23;20087;-89
2022/06/28 08:18:31;;;;;;;4.70;1.50;;;19.10;99.90;;;;;;6186735;23;20048;-90
2022/06/28 08:20:57;;;;;;;3.53;1.60;;;18.80;99.90;;;;;;6161875;23;20021;-91
2022/06/28 08:23:22;;;;;;;4.95;1.48;;;18.60;99.90;;;;;;6161645;23;20020;-89
2022/06/28 08:25:48;;;;;;;5.22;1.50;;;18.60;99.90;;;;;;6161202;23;20020;-87
2022/06/28 08:28:14;;;;;;;5.85;1.77;;;18.60;99.90;;;;;;6136276;23;20013;-89
2022/06/28 08:30:41;;;;;;;5.32;1.50;;;18.50;99.90;;;;;;6211114;23;20071;-88
2022/06/28 08:33:08;;;;;;;4.88;1.70;;;18.60;99.90;;;;;;6185731;23;20343;-89
2022/06/28 08:35:34;;;;;;;4.20;1.60;;;18.60;99.90;;;;;;6185316;23;20322;-87
2022/06/28 08:38:01;;;;;;;5.00;1.50;;;18.80;99.90;;;;;;6185420;23;20028;-88
2022/06/28 08:40:27;;;;;;;7.38;1.60;;;18.90;99.90;;;;;;6161332;23;20023;-90
2022/06/28 08:42:56;;;;;;;5.57;1.55;;;18.90;99.90;;;;;;6186382;23;20396;-89
2022/06/28 08:45:23;;;;;;;3.38;1.60;;;19.10;99.90;;;;;;6185563;23;20013;-87
2022/06/28 08:47:54;;;;;;;5.32;1.42;;;19.20;99.90;;;;;;6185760;23;20023;-89
2022/06/28 08:50:32;;;;;;;3.80;1.30;;;19.20;99.90;;;;;;6185983;23;20020;-88
2022/06/28 08:53:05;;;;;;;3.65;1.40;;;19.30;99.90;;;;;;6185751;23;20450;-89
2022/06/28 08:55:32;;;;;;;5.00;1.30;;;19.30;99.90;;;;;;6185919;23;20051;-88
2022/06/28 08:58:00;;;;;;;3.72;1.60;;;19.40;99.90;;;;;;6185690;23;20075;-87
2022/06/28 09:00:26;;;;;;;2.90;1.05;;;19.70;99.90;;;;;;6186947;23;20025;-86
2022/06/28 09:02:52;;;;;;;2.75;1.05;;;19.80;99.90;;;;;;6218414;23;20017;-86
2022/06/28 09:05:21;;;;;;;3.70;1.45;;;19.70;99.90;;;;;;6189648;23;20027;-87
2022/06/28 09:07:48;;;;;;;6.78;1.38;;;20.10;99.90;;;;;;6186474;23;20016;-88
2022/06/28 09:10:14;;;;;;;4.05;1.33;;;20.30;99.90;;;;;;6161175;23;20013;-87
2022/06/28 09:12:40;;;;;;;4.05;1.58;;;20.60;99.90;;;;;;6185444;23;20020;-88
2022/06/28 09:15:07;;;;;;;3.72;1.40;;;20.80;99.90;;;;;;6136012;23;20020;-88
2022/06/28 09:17:33;;;;;;;5.68;1.63;;;21.20;99.90;;;;;;6185482;23;20013;-88
2022/06/28 09:20:06;;;;;;;5.15;1.48;;;21.10;99.90;;;;;;6161089;23;20009;-88
2022/06/28 09:22:43;;;;;;;5.40;2.13;;;21.40;99.90;;;;;;6186169;23;20013;-86
2022/06/28 09:25:23;;;;;;;3.78;1.30;;;20.90;99.90;;;;;;6185463;23;20434;-87
2022/06/28 09:27:48;;;;;;;5.10;1.27;;;21.20;99.90;;;;;;6185834;23;20028;-86
2022/06/28 09:30:15;;;;;;;3.25;1.30;;;21.10;99.90;;;;;;6159868;23;20091;-86
2022/06/28 09:32:41;;;;;;;4.35;1.20;;;21.50;99.90;;;;;;6161206;23;20012;-87
2022/06/28 09:35:10;;;;;;;3.08;0.98;;;22.10;99.90;;;;;;6131683;23;20013;-86
2022/06/28 09:37:56;;;;;;;4.47;1.42;;;22.10;99.90;;;;;;6185628;23;20009;-88
2022/06/28 09:40:36;;;;;;;6.78;1.40;;;22.40;99.90;;;;;;6185823;23;20797;-87
2022/06/28 09:43:09;;;;;;;4.22;1.10;;;22.60;99.90;;;;;;6185264;23;20039;-86
2022/06/28 09:45:37;;;;;;;2.85;1.20;;;21.70;99.90;;;;;;6210948;23;20366;-87
2022/06/28 09:48:04;;;;;;;4.10;1.40;;;22.40;99.90;;;;;;6185651;23;20017;-88
2022/06/28 09:50:32;;;;;;;3.97;1.20;;;22.60;99.90;;;;;;6209956;23;20031;-87
2022/06/28 09:52:59;;;;;;;5.00;1.60;;;22.70;99.90;;;;;;6185845;23;20056;-87
2022/06/28 09:55:29;;;;;;;5.07;1.40;;;22.70;99.90;;;;;;6161129;23;20017;-88
2022/06/28 09:57:55;;;;;;;4.28;1.30;;;22.70;99.90;;;;;;6185172;23;20017;-85
2022/06/28 10:00:24;;;;;;;5.53;1.30;;;21.60;99.90;;;;;;6184978;23;20036;-90
2022/06/28 10:02:51;;;;;;;5.25;1.63;;;21.50;99.90;;;;;;6159169;23;20087;-89
2022/06/28 10:05:17;;;;;;;4.85;1.40;;;21.50;99.90;;;;;;6186144;23;20024;-90
2022/06/28 10:07:46;;;;;;;4.45;1.40;;;21.20;99.90;;;;;;6160575;23;20311;-91
2022/06/28 10:10:13;;;;;;;4.38;1.70;;;21.00;99.90;;;;;;6160264;23;20577;-91
2022/06/28 10:15:36;;;;;;;4.90;1.20;;;21.10;99.90;;;;;;6185476;23;20052;-88
2022/06/28 10:18:17;;;;;;;2.80;1.30;;;20.90;99.90;;;;;;6185951;23;20036;-87
2022/06/28 10:20:44;;;;;;;4.28;1.38;;;20.80;99.90;;;;;;6185580;23;20016;-89
2022/06/28 10:23:37;;;;;;;3.63;1.40;;;20.60;99.90;;;;;;6160884;23;20338;-87
2022/06/28 10:26:04;;;;;;;5.07;1.70;;;20.30;99.90;;;;;;6186103;23;20013;-88
2022/06/28 10:28:56;;;;;;;4.82;1.58;;;20.30;99.90;;;;;;6186178;23;20017;-87
2022/06/28 10:31:22;;;;;;;7.07;1.88;;;20.70;99.90;;;;;;6153397;23;20020;-89
2022/06/28 10:33:55;;;;;;;3.20;1.20;;;21.40;99.90;;;;;;6160946;23;20095;-87
2022/06/28 10:36:23;;;;;;;5.18;1.65;;;21.80;99.90;;;;;;6185009;23;20017;-86
2022/06/28 10:39:01;;;;;;;5.30;1.33;;;22.70;99.90;;;;;;6185229;23;20083;-87
2022/06/28 10:41:40;;;;;;;6.30;1.60;;;22.90;99.90;;;;;;6160508;23;20017;-86
2022/06/28 10:44:15;;;;;;;13.25;1.75;;;23.40;99.90;;;;;;6184903;23;20017;-91
2022/06/28 10:46:42;;;;;;;6.75;1.77;;;23.80;99.90;;;;;;6185109;23;20067;-86
2022/06/28 10:49:17;;;;;;;4.57;1.15;;;23.60;99.90;;;;;;6135599;23;20021;-87
2022/06/28 10:52:21;;;;;;;4.18;1.40;;;23.60;99.90;;;;;;6184781;23;20040;-85
2022/06/28 10:54:52;;;;;;;4.75;1.67;;;23.30;99.90;;;;;;6160307;23;20084;-87
2022/06/28 10:57:27;;;;;;;4.07;1.38;;;23.30;99.90;;;;;;6160016;23;20021;-88
2022/06/28 10:59:56;;;;;;;4.28;1.40;;;23.80;99.90;;;;;;6160789;23;20106;-87
2022/06/28 11:02:23;;;;;;;3.78;1.60;;;24.20;99.90;;;;;;6210511;23;20024;-87
2022/06/28 11:05:08;;;;;;;4.40;1.40;;;24.70;99.90;;;;;;6185275;23;20013;-88
2022/06/28 11:07:34;;;;;;;4.72;1.50;;;24.40;99.90;;;;;;6184644;23;20021;-86
2022/06/28 11:10:00;;;;;;;4.53;1.80;;;23.60;99.90;;;;;;6185071;23;20017;-87
2022/06/28 11:12:31;;;;;;;5.20;1.35;;;24.20;99.90;;;;;;6160346;23;20013;-87
2022/06/28 11:15:03;;;;;;;4.40;1.30;;;24.70;99.90;;;;;;6160680;23;20318;-87
2022/06/28 11:17:47;;;;;;;4.30;1.52;;;24.40;99.90;;;;;;6184910;23;20017;-88
2022/06/28 11:20:14;;;;;;;;;;;24.00;99.90;;;;;;6185947;23;20013;-85
2022/06/28 11:22:47;;;;;;;4.13;1.30;;;23.20;99.90;;;;;;6189880;23;19944;-86
2022/06/28 11:25:16;;;;;;;5.03;1.55;;;23.90;99.90;;;;;;6212975;23;20052;-88
2022/06/28 11:27:47;;;;;;;5.45;1.27;;;24.00;99.90;;;;;;6185900;23;20021;-87
2022/06/28 11:30:14;;;;;;;2.85;1.58;;;24.30;99.90;;;;;;6185266;23;20084;-86
2022/06/28 11:32:46;;;;;;;4.28;1.48;;;24.00;99.90;;;;;;6184746;23;20091;-88
2022/06/28 11:35:23;;;;;;;4.07;1.52;;;24.20;99.90;;;;;;6184485;23;20087;-88
2022/06/28 11:38:00;;;;;;;5.70;1.45;;;24.50;99.90;;;;;;6184795;23;20013;-87
2022/06/28 11:40:52;;;;;;;4.10;1.50;;;24.00;99.90;;;;;;6184997;23;20338;-86
2022/06/28 11:43:20;;;;;;;4.20;1.50;;;24.60;99.90;;;;;;6185288;23;20512;-88
2022/06/28 11:45:49;;;;;;;3.17;1.50;;;25.10;99.90;;;;;;6185015;23;20009;-90
2022/06/28 11:48:17;;;;;;;3.85;1.50;;;24.80;99.90;;;;;;6185192;23;20017;-90
2022/06/28 11:50:49;;;;;;;2.25;1.20;;;24.70;99.90;;;;;;6184967;23;20013;-87
2022/06/28 11:53:19;;;;;;;5.90;2.13;;;23.70;99.90;;;;;;6182950;23;20363;-89
2022/06/28 11:55:58;;;;;;;5.47;1.60;;;24.20;99.90;;;;;;6160474;23;20023;-87
2022/06/28 11:58:44;;;;;;;4.72;1.63;;;23.90;99.90;;;;;;6184176;23;20017;-88
2022/06/28 12:01:24;;;;;;;3.85;1.60;;;24.70;99.90;;;;;;6186464;23;20028;-88
2022/06/28 12:03:50;;;;;;;4.95;1.48;;;25.10;99.90;;;;;;6162779;23;20017;-88
2022/06/28 12:06:24;;;;;;;4.22;1.55;;;25.50;99.90;;;;;;6161952;23;20135;-88
2022/06/28 12:08:57;;;;;;;3.50;1.40;;;25.20;99.90;;;;;;6187448;23;20013;-87
2022/06/28 12:11:29;;;;;;;2.73;1.20;;;25.40;99.90;;;;;;6162227;23;20013;-89
2022/06/28 12:14:09;;;;;;;3.72;1.63;;;25.00;99.90;;;;;;6162730;23;20735;-87
2022/06/28 12:16:54;;;;;;;3.17;1.40;;;24.20;99.90;;;;;;6186252;23;20454;-88
2022/06/28 12:19:25;;;;;;;4.22;2.00;;;24.10;99.90;;;;;;6137262;23;20096;-87
2022/06/28 12:22:04;;;;;;;3.10;1.40;;;24.30;99.90;;;;;;6186583;23;20017;-91
2022/06/28 12:24:56;;;;;;;1.90;1.13;;;24.70;99.90;;;;;;6186257;23;20016;-89
2022/06/28 12:27:31;;;;;;;5.32;1.42;;;23.90;99.90;;;;;;6162625;23;20445;-88
2022/06/28 12:29:58;;;;;;;2.95;1.30;;;24.30;99.90;;;;;;6186151;23;20092;-87
2022/06/28 12:32:24;;;;;;;6.47;1.98;;;24.00;99.90;;;;;;6185701;23;20020;-90
2022/06/28 12:35:02;;;;;;;4.10;1.40;;;24.00;99.90;;;;;;6160995;23;20020;-87
2022/06/28 12:37:28;;;;;;;4.45;1.45;;;23.60;99.90;;;;;;6185621;23;20017;-88
2022/06/28 12:39:55;;;;;;;4.55;1.70;;;24.00;99.90;;;;;;6160929;23;20134;-87
2022/06/28 12:42:21;;;;;;;4.60;1.42;;;24.00;99.90;;;;;;6137295;23;20012;-88
2022/06/28 12:44:47;;;;;;;2.63;1.33;;;23.70;99.90;;;;;;6185705;23;20023;-89
2022/06/28 12:47:12;;;;;;;5.05;1.38;;;23.90;99.90;;;;;;6161319;23;20088;-89
2022/06/28 12:49:38;;;;;;;3.95;1.20;;;24.40;99.90;;;;;;6161144;23;20021;-88
2022/06/28 12:52:05;;;;;;;5.20;1.65;;;24.60;99.90;;;;;;6161348;23;20013;-88
2022/06/28 12:54:31;;;;;;;3.00;1.20;;;24.10;99.90;;;;;;6161098;23;20009;-88
2022/06/28 12:56:58;;;;;;;3.83;1.33;;;23.80;89.90;;;;;;6158735;23;20155;-87
2022/06/28 12:59:24;;;;;;;1.88;1.05;;;23.50;93.50;;;;;;6186229;23;20017;-88
2022/06/28 13:01:50;;;;;;;2.28;1.20;;;23.30;95.90;;;;;;6185717;23;20020;-87
2022/06/28 13:04:16;;;;;;;3.63;1.85;;;23.10;88.00;;;;;;6161572;23;20013;-88
2022/06/28 13:06:44;;;;;;;3.20;1.20;;;23.60;99.80;;;;;;6160904;23;20469;-88
2022/06/28 13:09:14;;;;;;;4.20;1.42;;;24.20;96.60;;;;;;6186041;23;20021;-87
2022/06/28 13:11:41;;;;;;;2.97;1.20;;;24.10;92.00;;;;;;6161008;23;20013;-88
2022/06/28 13:14:07;;;;;;;2.97;0.98;;;23.60;95.10;;;;;;6161187;23;20020;-87
2022/06/28 13:16:34;;;;;;;3.13;1.23;;;23.20;86.00;;;;;;6184739;23;20099;-88
2022/06/28 13:19:00;;;;;;;1.83;1.10;;;22.90;79.30;;;;;;6184058;23;20020;-89
2022/06/28 13:21:26;;;;;;;2.45;1.17;;;23.00;53.40;;;;;;6185529;23;20013;-88
2022/06/28 13:23:52;;;;;;;2.58;1.25;;;23.50;88.10;;;;;;6160860;23;20075;-89
2022/06/28 13:26:18;;;;;;;3.72;1.38;;;24.00;40.40;;;;;;6135343;23;20021;-88
2022/06/28 13:28:44;;;;;;;3.13;1.13;;;24.40;64.50;;;;;;6209879;23;20112;-88
2022/06/28 13:31:10;;;;;;;3.80;1.23;;;24.50;1.00;;;;;;6160805;23;20013;-87
2022/06/28 13:33:37;;;;;;;3.40;1.17;;;24.50;51.10;;;;;;6159435;23;20013;-88
2022/06/28 13:36:03;;;;;;;3.40;1.27;;;24.20;1.20;;;;;;6160678;23;20044;-90
2022/06/28 13:38:29;;;;;;;3.80;1.10;;;24.40;12.80;;;;;;6184023;23;20017;-88
2022/06/28 13:40:55;;;;;;;3.53;1.20;;;24.60;5.80;;;;;;6135576;23;20024;-88
2022/06/28 13:43:34;;;;;;;2.35;1.38;;;24.40;1.00;;;;;;6136857;23;20074;-87
2022/06/28 13:46:07;;;;;;;1.15;0.80;;;24.40;1.00;;;;;;6186307;23;20406;-86
2022/06/28 13:48:36;;;;;;;2.90;1.00;;;23.90;1.00;;;;;;6190723;23;20017;-85
2022/06/28 13:51:02;;;;;;;3.40;1.08;;;24.40;1.00;;;;;;6192272;23;20060;-89
2022/06/28 13:53:33;;;;;;;3.83;0.90;;;24.70;1.00;;;;;;6213967;23;20009;-88
2022/06/28 13:56:00;;;;;;;4.50;1.48;;;24.90;1.00;;;;;;6161772;23;20047;-88
2022/06/28 13:58:27;;;;;;;1.85;0.90;;;24.30;1.00;;;;;;6185197;23;20017;-89
2022/06/28 14:00:53;;;;;;;2.10;1.13;;;23.30;1.00;;;;;;6160315;23;20017;-88
2022/06/28 14:03:20;;;;;;;2.35;1.00;;;23.80;3.80;;;;;;6160761;23;20024;-87
2022/06/28 14:05:46;;;;;;;2.92;1.30;;;23.90;1.00;;;;;;6160499;23;20016;-87
2022/06/28 14:08:13;;;;;;;2.10;1.10;;;23.30;1.00;;;;;;6136234;23;20098;-88
2022/06/28 14:10:39;;;;;;;4.07;1.17;;;24.30;1.00;;;;;;6159961;23;20020;-86
2022/06/28 14:13:05;;;;;;;8.48;1.05;;;23.90;2.00;;;;;;6160432;23;20334;-88
2022/06/28 14:15:31;;;;;;;1.70;0.90;;;24.10;1.00;;;;;;6160714;23;20017;-89
2022/06/28 14:18:01;;;;;;;3.88;1.02;;;23.60;1.00;;;;;;6160682;23;20024;-89
2022/06/28 14:20:27;;;;;;;3.70;1.35;;;23.50;1.00;;;;;;6185065;23;20020;-89
2022/06/28 14:22:55;;;;;;;3.38;0.90;;;23.50;1.00;;;;;;6159625;23;20025;-88
2022/06/28 14:25:21;;;;;;;6.25;1.20;;;23.10;9.90;;;;;;6136202;23;20024;-89
2022/06/28 14:27:47;;;;;;;3.55;1.08;;;23.10;23.00;;;;;;6160274;23;20013;-89
2022/06/28 14:30:13;;;;;;;2.78;1.10;;;23.00;40.00;;;;;;6160869;23;20013;-90
2022/06/28 14:32:39;;;;;;;1.83;0.90;;;23.00;56.00;;;;;;6185577;23;20322;-88
2022/06/28 14:35:06;;;;;;;2.55;1.08;;;22.90;62.40;;;;;;6186376;23;20330;-90